sensor_id;sensor_type;location;lat;lon;timestamp;P1;durP1;ratioP1;P2;durP2;ratioP2
18196;SDS011;9224;52.422;13.024;2022-09-29T00:00:30;6.63;;;5.93;;
18196;SDS011;9224;52.422;13.024;2022-09-29T00:02:57;6.43;;;5.77;;
18196;SDS011;9224;52.422;13.024;2022-09-29T00:05:23;6.50;;;5.90;;
18196;SDS011;9224;52.422;13.024;2022-09-29T00:07:49;7.23;;;5.93;;
18196;SDS011;9224;52.422;13.024;2022-09-29T00:10:17;6.97;;;6.27;;
18196;SDS011;9224;52.422;13.024;2022-09-29T00:12:44;6.87;;;6.17;;
18196;SDS011;9224;52.422;13.024;2022-09-29T00:15:11;7.93;;;6.30;;
18196;SDS011;9224;52.422;13.024;2022-09-29T00:17:38;7.07;;;6.37;;
18196;SDS011;9224;52.422;13.024;2022-09-29T00:20:05;7.93;;;5.20;;
18196;SDS011;9224;52.422;13.024;2022-09-29T00:22:32;5.80;;;5.30;;
18196;SDS011;9224;52.422;13.024;2022-09-29T00:24:59;5.97;;;5.37;;
18196;SDS011;9224;52.422;13.024;2022-09-29T00:27:27;9.03;;;5.80;;
18196;SDS011;9224;52.422;13.024;2022-09-29T00:29:53;7.87;;;6.10;;
18196;SDS011;9224;52.422;13.024;2022-09-29T00:32:19;7.63;;;6.03;;
18196;SDS011;9224;52.422;13.024;2022-09-29T00:34:46;7.70;;;6.10;;
18196;SDS011;9224;52.422;13.024;2022-09-29T00:37:14;7.50;;;5.83;;
18196;SDS011;9224;52.422;13.024;2022-09-29T00:39:41;7.13;;;5.87;;
18196;SDS011;9224;52.422;13.024;2022-09-29T00:42:08;6.77;;;5.60;;
18196;SDS011;9224;52.422;13.024;2022-09-29T00:47:39;8.03;;;6.53;;
18196;SDS011;9224;52.422;13.024;2022-09-29T00:50:08;7.37;;;6.20;;
18196;SDS011;9224;52.422;13.024;2022-09-29T00:52:38;7.73;;;6.10;;
18196;SDS011;9224;52.422;13.024;2022-09-29T00:55:08;6.90;;;6.20;;
18196;SDS011;9224;52.422;13.024;2022-09-29T00:57:40;7.43;;;6.67;;
18196;SDS011;9224;52.422;13.024;2022-09-29T01:00:09;8.10;;;6.80;;
18196;SDS011;9224;52.422;13.024;2022-09-29T01:02:39;6.93;;;6.17;;
18196;SDS011;9224;52.422;13.024;2022-09-29T01:05:07;6.53;;;5.93;;
18196;SDS011;9224;52.422;13.024;2022-09-29T01:07:36;7.20;;;6.47;;
18196;SDS011;9224;52.422;13.024;2022-09-29T01:10:03;6.87;;;6.17;;
18196;SDS011;9224;52.422;13.024;2022-09-29T01:12:30;8.43;;;7.53;;
18196;SDS011;9224;52.422;13.024;2022-09-29T01:14:57;7.37;;;6.67;;
18196;SDS011;9224;52.422;13.024;2022-09-29T01:17:24;8.17;;;7.30;;
18196;SDS011;9224;52.422;13.024;2022-09-29T01:19:54;7.83;;;6.90;;
18196;SDS011;9224;52.422;13.024;2022-09-29T01:22:34;7.43;;;6.40;;
18196;SDS011;9224;52.422;13.024;2022-09-29T01:25:17;8.17;;;7.03;;
18196;SDS011;9224;52.422;13.024;2022-09-29T01:27:58;7.50;;;6.70;;
18196;SDS011;9224;52.422;13.024;2022-09-29T01:30:42;8.43;;;6.57;;
18196;SDS011;9224;52.422;13.024;2022-09-29T01:33:18;7.30;;;6.60;;
18196;SDS011;9224;52.422;13.024;2022-09-29T01:35:51;9.63;;;6.47;;
18196;SDS011;9224;52.422;13.024;2022-09-29T01:38:30;7.80;;;6.90;;
18196;SDS011;9224;52.422;13.024;2022-09-29T01:41:08;8.37;;;6.53;;
18196;SDS011;9224;52.422;13.024;2022-09-29T01:43:37;8.40;;;6.63;;
18196;SDS011;9224;52.422;13.024;2022-09-29T01:46:08;7.93;;;6.33;;
18196;SDS011;9224;52.422;13.024;2022-09-29T01:48:37;7.97;;;6.97;;
18196;SDS011;9224;52.422;13.024;2022-09-29T01:51:07;8.07;;;6.73;;
18196;SDS011;9224;52.422;13.024;2022-09-29T01:53:38;7.57;;;6.87;;
18196;SDS011;9224;52.422;13.024;2022-09-29T01:56:08;9.50;;;6.90;;
18196;SDS011;9224;52.422;13.024;2022-09-29T01:58:40;10.07;;;7.77;;
18196;SDS011;9224;52.422;13.024;2022-09-29T02:01:11;7.57;;;6.83;;
18196;SDS011;9224;52.422;13.024;2022-09-29T02:03:40;9.33;;;7.73;;
18196;SDS011;9224;52.422;13.024;2022-09-29T02:06:09;9.80;;;7.53;;
18196;SDS011;9224;52.422;13.024;2022-09-29T02:09:37;8.67;;;7.67;;
18196;SDS011;9224;52.422;13.024;2022-09-29T02:12:05;9.50;;;7.87;;
18196;SDS011;9224;52.422;13.024;2022-09-29T02:14:35;8.93;;;7.63;;
18196;SDS011;9224;52.422;13.024;2022-09-29T02:17:07;11.30;;;7.73;;
18196;SDS011;9224;52.422;13.024;2022-09-29T02:19:37;9.07;;;7.83;;
18196;SDS011;9224;52.422;13.024;2022-09-29T02:22:06;8.47;;;7.40;;
18196;SDS011;9224;52.422;13.024;2022-09-29T02:24:32;8.97;;;7.50;;
18196;SDS011;9224;52.422;13.024;2022-09-29T02:26:59;9.00;;;7.83;;
18196;SDS011;9224;52.422;13.024;2022-09-29T02:29:26;8.93;;;7.90;;
18196;SDS011;9224;52.422;13.024;2022-09-29T02:31:52;10.43;;;8.13;;
18196;SDS011;9224;52.422;13.024;2022-09-29T02:34:42;8.73;;;7.57;;
18196;SDS011;9224;52.422;13.024;2022-09-29T02:37:33;9.33;;;8.13;;
18196;SDS011;9224;52.422;13.024;2022-09-29T02:40:25;10.73;;;7.97;;
18196;SDS011;9224;52.422;13.024;2022-09-29T02:43:29;9.50;;;8.17;;
18196;SDS011;9224;52.422;13.024;2022-09-29T02:46:06;10.63;;;8.10;;
18196;SDS011;9224;52.422;13.024;2022-09-29T02:48:48;9.70;;;8.10;;
18196;SDS011;9224;52.422;13.024;2022-09-29T02:51:23;11.23;;;8.50;;
18196;SDS011;9224;52.422;13.024;2022-09-29T02:53:56;11.97;;;8.43;;
18196;SDS011;9224;52.422;13.024;2022-09-29T02:56:28;12.73;;;8.30;;
18196;SDS011;9224;52.422;13.024;2022-09-29T02:59:02;10.30;;;8.70;;
18196;SDS011;9224;52.422;13.024;2022-09-29T03:01:30;10.85;;;8.85;;
18196;SDS011;9224;52.422;13.024;2022-09-29T03:03:57;9.87;;;8.63;;
18196;SDS011;9224;52.422;13.024;2022-09-29T03:06:25;11.00;;;9.00;;
18196;SDS011;9224;52.422;13.024;2022-09-29T03:08:52;10.87;;;8.83;;
18196;SDS011;9224;52.422;13.024;2022-09-29T03:11:19;10.77;;;9.27;;
18196;SDS011;9224;52.422;13.024;2022-09-29T03:13:45;11.07;;;8.80;;
18196;SDS011;9224;52.422;13.024;2022-09-29T03:16:12;9.43;;;8.43;;
18196;SDS011;9224;52.422;13.024;2022-09-29T03:18:38;10.70;;;9.13;;
18196;SDS011;9224;52.422;13.024;2022-09-29T03:21:05;10.67;;;8.63;;
18196;SDS011;9224;52.422;13.024;2022-09-29T03:23:32;14.00;;;9.57;;
18196;SDS011;9224;52.422;13.024;2022-09-29T03:25:59;11.40;;;8.73;;
18196;SDS011;9224;52.422;13.024;2022-09-29T03:28:25;12.40;;;10.07;;
18196;SDS011;9224;52.422;13.024;2022-09-29T03:30:52;10.57;;;9.47;;
18196;SDS011;9224;52.422;13.024;2022-09-29T03:33:19;11.77;;;10.10;;
18196;SDS011;9224;52.422;13.024;2022-09-29T03:35:46;16.03;;;10.03;;
18196;SDS011;9224;52.422;13.024;2022-09-29T03:38:12;12.80;;;10.00;;
18196;SDS011;9224;52.422;13.024;2022-09-29T03:40:40;11.10;;;9.43;;
18196;SDS011;9224;52.422;13.024;2022-09-29T03:43:06;11.57;;;9.47;;
18196;SDS011;9224;52.422;13.024;2022-09-29T03:45:33;12.30;;;9.17;;
18196;SDS011;9224;52.422;13.024;2022-09-29T03:47:59;13.20;;;10.17;;
18196;SDS011;9224;52.422;13.024;2022-09-29T03:50:26;12.53;;;9.47;;
18196;SDS011;9224;52.422;13.024;2022-09-29T03:52:53;12.63;;;9.03;;
18196;SDS011;9224;52.422;13.024;2022-09-29T03:55:19;12.43;;;9.60;;
18196;SDS011;9224;52.422;13.024;2022-09-29T03:57:47;12.80;;;10.03;;
18196;SDS011;9224;52.422;13.024;2022-09-29T04:00:13;12.93;;;10.13;;
18196;SDS011;9224;52.422;13.024;2022-09-29T04:02:40;14.50;;;10.97;;
18196;SDS011;9224;52.422;13.024;2022-09-29T04:05:07;12.87;;;10.30;;
18196;SDS011;9224;52.422;13.024;2022-09-29T04:07:33;11.83;;;9.47;;
18196;SDS011;9224;52.422;13.024;2022-09-29T04:10:00;13.70;;;10.10;;
18196;SDS011;9224;52.422;13.024;2022-09-29T04:12:26;11.13;;;9.50;;
18196;SDS011;9224;52.422;13.024;2022-09-29T04:14:54;13.07;;;9.87;;
18196;SDS011;9224;52.422;13.024;2022-09-29T04:17:21;13.23;;;9.57;;
18196;SDS011;9224;52.422;13.024;2022-09-29T04:19:47;13.23;;;10.30;;
18196;SDS011;9224;52.422;13.024;2022-09-29T04:22:14;12.50;;;9.77;;
18196;SDS011;9224;52.422;13.024;2022-09-29T04:24:42;12.43;;;9.97;;
18196;SDS011;9224;52.422;13.024;2022-09-29T04:27:09;14.13;;;9.87;;
18196;SDS011;9224;52.422;13.024;2022-09-29T04:29:36;13.90;;;10.37;;
18196;SDS011;9224;52.422;13.024;2022-09-29T04:32:04;13.47;;;10.50;;
18196;SDS011;9224;52.422;13.024;2022-09-29T04:34:31;12.33;;;10.40;;
18196;SDS011;9224;52.422;13.024;2022-09-29T04:36:57;13.13;;;10.87;;
18196;SDS011;9224;52.422;13.024;2022-09-29T04:39:24;12.60;;;10.30;;
18196;SDS011;9224;52.422;13.024;2022-09-29T04:41:50;11.80;;;10.10;;
18196;SDS011;9224;52.422;13.024;2022-09-29T04:44:16;15.83;;;10.87;;
18196;SDS011;9224;52.422;13.024;2022-09-29T04:49:45;12.53;;;10.27;;
18196;SDS011;9224;52.422;13.024;2022-09-29T04:52:11;12.90;;;10.80;;
18196;SDS011;9224;52.422;13.024;2022-09-29T04:54:38;13.07;;;10.43;;
18196;SDS011;9224;52.422;13.024;2022-09-29T04:57:05;14.67;;;11.30;;
18196;SDS011;9224;52.422;13.024;2022-09-29T04:59:31;13.63;;;10.97;;
18196;SDS011;9224;52.422;13.024;2022-09-29T05:02:10;12.80;;;10.43;;
18196;SDS011;9224;52.422;13.024;2022-09-29T05:04:38;16.23;;;11.23;;
18196;SDS011;9224;52.422;13.024;2022-09-29T05:07:04;13.53;;;11.10;;
18196;SDS011;9224;52.422;13.024;2022-09-29T05:09:31;13.23;;;10.37;;
18196;SDS011;9224;52.422;13.024;2022-09-29T05:11:57;14.67;;;11.43;;
18196;SDS011;9224;52.422;13.024;2022-09-29T05:14:24;15.60;;;11.43;;
18196;SDS011;9224;52.422;13.024;2022-09-29T05:16:52;13.30;;;10.63;;
18196;SDS011;9224;52.422;13.024;2022-09-29T05:19:19;15.60;;;11.60;;
18196;SDS011;9224;52.422;13.024;2022-09-29T05:21:47;16.00;;;12.63;;
18196;SDS011;9224;52.422;13.024;2022-09-29T05:24:13;19.50;;;11.77;;
18196;SDS011;9224;52.422;13.024;2022-09-29T05:26:40;13.67;;;11.33;;
18196;SDS011;9224;52.422;13.024;2022-09-29T05:29:06;14.70;;;11.33;;
18196;SDS011;9224;52.422;13.024;2022-09-29T05:31:33;14.33;;;11.53;;
18196;SDS011;9224;52.422;13.024;2022-09-29T05:33:59;13.97;;;10.40;;
18196;SDS011;9224;52.422;13.024;2022-09-29T05:36:25;18.10;;;12.37;;
18196;SDS011;9224;52.422;13.024;2022-09-29T05:38:53;16.57;;;12.07;;
18196;SDS011;9224;52.422;13.024;2022-09-29T05:41:20;14.90;;;11.57;;
18196;SDS011;9224;52.422;13.024;2022-09-29T05:43:47;17.07;;;12.37;;
18196;SDS011;9224;52.422;13.024;2022-09-29T05:46:14;16.60;;;12.17;;
18196;SDS011;9224;52.422;13.024;2022-09-29T05:48:40;17.03;;;11.67;;
18196;SDS011;9224;52.422;13.024;2022-09-29T05:51:08;17.53;;;12.40;;
18196;SDS011;9224;52.422;13.024;2022-09-29T05:53:36;19.00;;;12.43;;
18196;SDS011;9224;52.422;13.024;2022-09-29T05:56:05;18.40;;;11.40;;
18196;SDS011;9224;52.422;13.024;2022-09-29T05:58:32;16.07;;;12.20;;
18196;SDS011;9224;52.422;13.024;2022-09-29T06:00:58;16.30;;;11.83;;
18196;SDS011;9224;52.422;13.024;2022-09-29T06:03:25;15.40;;;11.13;;
18196;SDS011;9224;52.422;13.024;2022-09-29T06:05:51;19.77;;;13.20;;
18196;SDS011;9224;52.422;13.024;2022-09-29T06:08:17;15.30;;;11.57;;
18196;SDS011;9224;52.422;13.024;2022-09-29T06:10:44;18.43;;;12.07;;
18196;SDS011;9224;52.422;13.024;2022-09-29T06:13:12;15.93;;;12.13;;
18196;SDS011;9224;52.422;13.024;2022-09-29T06:15:38;18.53;;;12.53;;
18196;SDS011;9224;52.422;13.024;2022-09-29T06:18:04;16.87;;;13.43;;
18196;SDS011;9224;52.422;13.024;2022-09-29T06:20:31;18.93;;;13.90;;
18196;SDS011;9224;52.422;13.024;2022-09-29T06:23:02;19.43;;;13.37;;
18196;SDS011;9224;52.422;13.024;2022-09-29T06:25:28;17.73;;;13.37;;
18196;SDS011;9224;52.422;13.024;2022-09-29T06:27:55;17.37;;;13.10;;
18196;SDS011;9224;52.422;13.024;2022-09-29T06:30:22;17.60;;;12.70;;
18196;SDS011;9224;52.422;13.024;2022-09-29T06:32:50;19.33;;;13.30;;
18196;SDS011;9224;52.422;13.024;2022-09-29T06:35:16;18.30;;;13.37;;
18196;SDS011;9224;52.422;13.024;2022-09-29T06:38:00;19.93;;;14.47;;
18196;SDS011;9224;52.422;13.024;2022-09-29T06:40:26;18.03;;;13.23;;
18196;SDS011;9224;52.422;13.024;2022-09-29T06:42:53;17.87;;;13.43;;
18196;SDS011;9224;52.422;13.024;2022-09-29T06:45:19;17.47;;;12.60;;
18196;SDS011;9224;52.422;13.024;2022-09-29T06:47:47;19.57;;;13.97;;
18196;SDS011;9224;52.422;13.024;2022-09-29T06:50:14;19.87;;;15.43;;
18196;SDS011;9224;52.422;13.024;2022-09-29T06:52:40;18.10;;;13.80;;
18196;SDS011;9224;52.422;13.024;2022-09-29T06:55:07;19.63;;;13.57;;
18196;SDS011;9224;52.422;13.024;2022-09-29T06:57:33;18.80;;;14.07;;
18196;SDS011;9224;52.422;13.024;2022-09-29T07:00:01;20.43;;;14.47;;
18196;SDS011;9224;52.422;13.024;2022-09-29T07:02:29;20.10;;;14.83;;
18196;SDS011;9224;52.422;13.024;2022-09-29T07:04:57;20.70;;;14.80;;
18196;SDS011;9224;52.422;13.024;2022-09-29T07:07:23;21.43;;;14.37;;
18196;SDS011;9224;52.422;13.024;2022-09-29T07:09:50;19.50;;;14.67;;
18196;SDS011;9224;52.422;13.024;2022-09-29T07:12:16;19.87;;;14.57;;
18196;SDS011;9224;52.422;13.024;2022-09-29T07:14:43;22.77;;;14.23;;
18196;SDS011;9224;52.422;13.024;2022-09-29T07:17:09;20.13;;;15.30;;
18196;SDS011;9224;52.422;13.024;2022-09-29T07:19:37;18.33;;;14.13;;
18196;SDS011;9224;52.422;13.024;2022-09-29T07:22:05;20.77;;;14.63;;
18196;SDS011;9224;52.422;13.024;2022-09-29T07:24:33;19.80;;;14.00;;
18196;SDS011;9224;52.422;13.024;2022-09-29T07:27:00;18.43;;;14.33;;
18196;SDS011;9224;52.422;13.024;2022-09-29T07:29:26;17.90;;;13.80;;
18196;SDS011;9224;52.422;13.024;2022-09-29T07:31:56;20.70;;;14.87;;
18196;SDS011;9224;52.422;13.024;2022-09-29T07:34:23;17.43;;;13.43;;
18196;SDS011;9224;52.422;13.024;2022-09-29T07:36:50;16.83;;;13.30;;
18196;SDS011;9224;52.422;13.024;2022-09-29T07:39:18;19.70;;;14.13;;
18196;SDS011;9224;52.422;13.024;2022-09-29T07:41:45;16.57;;;13.63;;
18196;SDS011;9224;52.422;13.024;2022-09-29T07:44:12;19.43;;;14.53;;
18196;SDS011;9224;52.422;13.024;2022-09-29T07:46:38;20.03;;;14.57;;
18196;SDS011;9224;52.422;13.024;2022-09-29T07:49:05;21.33;;;14.60;;
18196;SDS011;9224;52.422;13.024;2022-09-29T07:51:31;18.43;;;14.10;;
18196;SDS011;9224;52.422;13.024;2022-09-29T07:54:00;19.40;;;14.10;;
18196;SDS011;9224;52.422;13.024;2022-09-29T07:56:28;18.73;;;13.87;;
18196;SDS011;9224;52.422;13.024;2022-09-29T07:58:54;20.10;;;14.23;;
18196;SDS011;9224;52.422;13.024;2022-09-29T08:01:22;19.50;;;14.63;;
18196;SDS011;9224;52.422;13.024;2022-09-29T08:03:48;17.87;;;13.63;;
18196;SDS011;9224;52.422;13.024;2022-09-29T08:06:17;16.77;;;14.63;;
18196;SDS011;9224;52.422;13.024;2022-09-29T08:08:43;17.37;;;14.50;;
18196;SDS011;9224;52.422;13.024;2022-09-29T08:11:11;19.87;;;14.20;;
18196;SDS011;9224;52.422;13.024;2022-09-29T08:13:39;21.53;;;14.20;;
18196;SDS011;9224;52.422;13.024;2022-09-29T08:16:07;17.47;;;14.13;;
18196;SDS011;9224;52.422;13.024;2022-09-29T08:18:36;18.50;;;14.33;;
18196;SDS011;9224;52.422;13.024;2022-09-29T08:21:03;18.00;;;13.33;;
18196;SDS011;9224;52.422;13.024;2022-09-29T08:23:33;16.83;;;12.87;;
18196;SDS011;9224;52.422;13.024;2022-09-29T08:26:00;15.77;;;13.20;;
18196;SDS011;9224;52.422;13.024;2022-09-29T08:28:28;18.07;;;14.90;;
18196;SDS011;9224;52.422;13.024;2022-09-29T08:30:56;17.10;;;13.47;;
18196;SDS011;9224;52.422;13.024;2022-09-29T08:33:23;16.13;;;13.70;;
18196;SDS011;9224;52.422;13.024;2022-09-29T08:35:54;15.50;;;12.70;;
18196;SDS011;9224;52.422;13.024;2022-09-29T08:38:21;15.23;;;12.93;;
18196;SDS011;9224;52.422;13.024;2022-09-29T08:40:48;15.50;;;13.00;;
18196;SDS011;9224;52.422;13.024;2022-09-29T08:43:15;21.17;;;15.00;;
18196;SDS011;9224;52.422;13.024;2022-09-29T08:45:45;22.03;;;14.13;;
18196;SDS011;9224;52.422;13.024;2022-09-29T08:48:15;17.27;;;14.13;;
18196;SDS011;9224;52.422;13.024;2022-09-29T08:50:46;18.60;;;13.73;;
18196;SDS011;9224;52.422;13.024;2022-09-29T08:53:17;15.43;;;12.87;;
18196;SDS011;9224;52.422;13.024;2022-09-29T08:55:46;16.70;;;13.40;;
18196;SDS011;9224;52.422;13.024;2022-09-29T08:58:17;15.23;;;13.07;;
18196;SDS011;9224;52.422;13.024;2022-09-29T09:00:48;15.43;;;13.00;;
18196;SDS011;9224;52.422;13.024;2022-09-29T09:03:27;14.23;;;11.37;;
18196;SDS011;9224;52.422;13.024;2022-09-29T09:06:11;13.97;;;11.70;;
18196;SDS011;9224;52.422;13.024;2022-09-29T09:11:43;16.17;;;11.83;;
18196;SDS011;9224;52.422;13.024;2022-09-29T09:14:18;12.20;;;10.47;;
18196;SDS011;9224;52.422;13.024;2022-09-29T09:16:58;11.07;;;9.73;;
18196;SDS011;9224;52.422;13.024;2022-09-29T09:22:20;11.13;;;9.10;;
18196;SDS011;9224;52.422;13.024;2022-09-29T09:24:48;12.67;;;9.53;;
18196;SDS011;9224;52.422;13.024;2022-09-29T09:27:23;10.47;;;9.00;;
18196;SDS011;9224;52.422;13.024;2022-09-29T09:29:53;9.30;;;8.40;;
18196;SDS011;9224;52.422;13.024;2022-09-29T09:32:26;11.63;;;8.93;;
18196;SDS011;9224;52.422;13.024;2022-09-29T09:34:56;10.20;;;7.90;;
18196;SDS011;9224;52.422;13.024;2022-09-29T09:37:25;8.70;;;7.80;;
18196;SDS011;9224;52.422;13.024;2022-09-29T09:39:55;9.00;;;8.10;;
18196;SDS011;9224;52.422;13.024;2022-09-29T09:42:25;8.80;;;7.90;;
18196;SDS011;9224;52.422;13.024;2022-09-29T09:44:56;9.03;;;8.13;;
18196;SDS011;9224;52.422;13.024;2022-09-29T09:47:24;9.37;;;7.67;;
18196;SDS011;9224;52.422;13.024;2022-09-29T09:49:53;9.00;;;8.07;;
18196;SDS011;9224;52.422;13.024;2022-09-29T09:52:23;8.87;;;7.53;;
18196;SDS011;9224;52.422;13.024;2022-09-29T09:54:53;7.17;;;6.47;;
18196;SDS011;9224;52.422;13.024;2022-09-29T09:57:27;8.17;;;7.37;;
18196;SDS011;9224;52.422;13.024;2022-09-29T10:00:04;8.37;;;7.20;;
18196;SDS011;9224;52.422;13.024;2022-09-29T10:02:35;8.97;;;7.27;;
18196;SDS011;9224;52.422;13.024;2022-09-29T10:05:08;8.57;;;7.63;;
18196;SDS011;9224;52.422;13.024;2022-09-29T10:07:37;8.87;;;7.97;;
18196;SDS011;9224;52.422;13.024;2022-09-29T10:10:04;8.00;;;7.10;;
18196;SDS011;9224;52.422;13.024;2022-09-29T10:12:39;7.53;;;6.13;;
18196;SDS011;9224;52.422;13.024;2022-09-29T10:15:11;7.67;;;6.43;;
18196;SDS011;9224;52.422;13.024;2022-09-29T10:17:44;7.80;;;7.10;;
18196;SDS011;9224;52.422;13.024;2022-09-29T10:20:17;7.93;;;7.23;;
18196;SDS011;9224;52.422;13.024;2022-09-29T10:22:57;8.03;;;7.33;;
18196;SDS011;9224;52.422;13.024;2022-09-29T10:25:50;7.60;;;6.83;;
18196;SDS011;9224;52.422;13.024;2022-09-29T10:28:18;9.10;;;7.20;;
18196;SDS011;9224;52.422;13.024;2022-09-29T10:30:45;7.93;;;6.37;;
18196;SDS011;9224;52.422;13.024;2022-09-29T10:33:13;6.10;;;5.30;;
18196;SDS011;9224;52.422;13.024;2022-09-29T10:35:42;6.67;;;5.73;;
18196;SDS011;9224;52.422;13.024;2022-09-29T10:38:14;5.57;;;5.07;;
18196;SDS011;9224;52.422;13.024;2022-09-29T10:40:52;7.07;;;6.37;;
18196;SDS011;9224;52.422;13.024;2022-09-29T10:43:21;5.60;;;5.10;;
18196;SDS011;9224;52.422;13.024;2022-09-29T10:45:49;6.43;;;5.50;;
18196;SDS011;9224;52.422;13.024;2022-09-29T10:48:17;5.30;;;4.77;;
18196;SDS011;9224;52.422;13.024;2022-09-29T10:50:49;5.70;;;4.67;;
18196;SDS011;9224;52.422;13.024;2022-09-29T10:53:18;5.90;;;5.30;;
18196;SDS011;9224;52.422;13.024;2022-09-29T10:55:49;5.20;;;4.70;;
18196;SDS011;9224;52.422;13.024;2022-09-29T10:58:19;5.60;;;5.13;;
18196;SDS011;9224;52.422;13.024;2022-09-29T11:00:48;5.63;;;5.13;;
18196;SDS011;9224;52.422;13.024;2022-09-29T11:03:16;5.43;;;4.93;;
18196;SDS011;9224;52.422;13.024;2022-09-29T11:05:51;5.17;;;4.67;;
18196;SDS011;9224;52.422;13.024;2022-09-29T11:08:20;5.50;;;5.00;;
18196;SDS011;9224;52.422;13.024;2022-09-29T11:10:52;4.77;;;4.30;;
18196;SDS011;9224;52.422;13.024;2022-09-29T11:13:33;5.90;;;5.37;;
18196;SDS011;9224;52.422;13.024;2022-09-29T11:16:07;5.30;;;4.80;;
18196;SDS011;9224;52.422;13.024;2022-09-29T11:18:39;4.90;;;4.50;;
18196;SDS011;9224;52.422;13.024;2022-09-29T11:21:13;4.37;;;3.90;;
18196;SDS011;9224;52.422;13.024;2022-09-29T11:23:56;4.40;;;4.03;;
18196;SDS011;9224;52.422;13.024;2022-09-29T11:26:27;4.80;;;4.40;;
18196;SDS011;9224;52.422;13.024;2022-09-29T11:29:01;4.97;;;4.57;;
18196;SDS011;9224;52.422;13.024;2022-09-29T11:31:37;4.97;;;4.30;;
18196;SDS011;9224;52.422;13.024;2022-09-29T11:34:10;5.63;;;3.80;;
18196;SDS011;9224;52.422;13.024;2022-09-29T11:36:52;3.70;;;3.40;;
18196;SDS011;9224;52.422;13.024;2022-09-29T11:39:27;4.40;;;4.00;;
18196;SDS011;9224;52.422;13.024;2022-09-29T11:42:03;3.83;;;3.50;;
18196;SDS011;9224;52.422;13.024;2022-09-29T11:44:57;4.40;;;4.00;;
18196;SDS011;9224;52.422;13.024;2022-09-29T11:47:36;4.73;;;4.33;;
18196;SDS011;9224;52.422;13.024;2022-09-29T11:50:15;4.30;;;3.90;;
18196;SDS011;9224;52.422;13.024;2022-09-29T11:52:57;4.30;;;4.00;;
18196;SDS011;9224;52.422;13.024;2022-09-29T11:55:45;5.30;;;4.00;;
18196;SDS011;9224;52.422;13.024;2022-09-29T11:58:22;4.67;;;4.17;;
18196;SDS011;9224;52.422;13.024;2022-09-29T12:03:49;4.17;;;3.77;;
18196;SDS011;9224;52.422;13.024;2022-09-29T12:06:26;4.60;;;4.13;;
18196;SDS011;9224;52.422;13.024;2022-09-29T12:09:04;3.30;;;3.03;;
18196;SDS011;9224;52.422;13.024;2022-09-29T12:11:40;2.83;;;2.63;;
18196;SDS011;9224;52.422;13.024;2022-09-29T12:14:13;3.20;;;2.90;;
18196;SDS011;9224;52.422;13.024;2022-09-29T12:16:43;3.00;;;2.80;;
18196;SDS011;9224;52.422;13.024;2022-09-29T12:19:16;1.93;;;1.83;;
18196;SDS011;9224;52.422;13.024;2022-09-29T12:21:45;2.23;;;2.03;;
18196;SDS011;9224;52.422;13.024;2022-09-29T12:24:16;2.10;;;2.00;;
18196;SDS011;9224;52.422;13.024;2022-09-29T12:26:45;1.80;;;1.70;;
18196;SDS011;9224;52.422;13.024;2022-09-29T12:29:16;2.20;;;1.90;;
18196;SDS011;9224;52.422;13.024;2022-09-29T12:31:49;2.00;;;1.80;;
18196;SDS011;9224;52.422;13.024;2022-09-29T12:34:16;2.23;;;2.13;;
18196;SDS011;9224;52.422;13.024;2022-09-29T12:36:46;2.30;;;2.20;;
18196;SDS011;9224;52.422;13.024;2022-09-29T12:42:15;2.23;;;2.13;;
18196;SDS011;9224;52.422;13.024;2022-09-29T12:44:46;2.77;;;2.40;;
18196;SDS011;9224;52.422;13.024;2022-09-29T12:47:18;2.50;;;2.30;;
18196;SDS011;9224;52.422;13.024;2022-09-29T12:49:53;2.73;;;2.50;;
18196;SDS011;9224;52.422;13.024;2022-09-29T12:52:28;2.53;;;2.33;;
18196;SDS011;9224;52.422;13.024;2022-09-29T12:54:59;2.60;;;2.40;;
18196;SDS011;9224;52.422;13.024;2022-09-29T12:57:30;2.67;;;2.47;;
18196;SDS011;9224;52.422;13.024;2022-09-29T13:00:00;2.70;;;2.50;;
18196;SDS011;9224;52.422;13.024;2022-09-29T13:02:39;2.83;;;2.40;;
18196;SDS011;9224;52.422;13.024;2022-09-29T13:05:30;2.77;;;2.50;;
18196;SDS011;9224;52.422;13.024;2022-09-29T13:08:22;4.70;;;2.70;;
18196;SDS011;9224;52.422;13.024;2022-09-29T13:11:17;2.60;;;2.40;;
18196;SDS011;9224;52.422;13.024;2022-09-29T13:13:53;2.73;;;2.53;;
18196;SDS011;9224;52.422;13.024;2022-09-29T13:16:41;2.67;;;2.47;;
18196;SDS011;9224;52.422;13.024;2022-09-29T13:19:32;2.20;;;2.10;;
18196;SDS011;9224;52.422;13.024;2022-09-29T13:25:27;3.13;;;2.50;;
18196;SDS011;9224;52.422;13.024;2022-09-29T13:28:00;2.33;;;2.13;;
18196;SDS011;9224;52.422;13.024;2022-09-29T13:30:26;2.50;;;2.30;;
18196;SDS011;9224;52.422;13.024;2022-09-29T13:32:56;2.40;;;2.30;;
18196;SDS011;9224;52.422;13.024;2022-09-29T13:35:25;2.00;;;1.90;;
18196;SDS011;9224;52.422;13.024;2022-09-29T13:37:52;2.10;;;2.00;;
18196;SDS011;9224;52.422;13.024;2022-09-29T13:40:21;1.97;;;1.83;;
18196;SDS011;9224;52.422;13.024;2022-09-29T13:42:50;2.27;;;2.17;;
18196;SDS011;9224;52.422;13.024;2022-09-29T13:51:21;2.43;;;2.23;;
18196;SDS011;9224;52.422;13.024;2022-09-29T13:54:20;2.20;;;2.10;;
18196;SDS011;9224;52.422;13.024;2022-09-29T13:56:58;2.10;;;1.90;;
18196;SDS011;9224;52.422;13.024;2022-09-29T13:59:26;1.83;;;1.73;;
18196;SDS011;9224;52.422;13.024;2022-09-29T14:01:55;2.67;;;1.93;;
18196;SDS011;9224;52.422;13.024;2022-09-29T14:04:29;2.20;;;2.00;;
18196;SDS011;9224;52.422;13.024;2022-09-29T14:07:10;1.90;;;1.80;;
18196;SDS011;9224;52.422;13.024;2022-09-29T14:09:38;2.20;;;2.07;;
18196;SDS011;9224;52.422;13.024;2022-09-29T14:12:08;2.43;;;2.30;;
18196;SDS011;9224;52.422;13.024;2022-09-29T14:14:41;2.10;;;1.97;;
18196;SDS011;9224;52.422;13.024;2022-09-29T14:17:15;2.20;;;2.10;;
18196;SDS011;9224;52.422;13.024;2022-09-29T14:19:50;2.40;;;2.20;;
18196;SDS011;9224;52.422;13.024;2022-09-29T14:25:23;2.13;;;2.03;;
18196;SDS011;9224;52.422;13.024;2022-09-29T14:28:13;2.10;;;2.00;;
18196;SDS011;9224;52.422;13.024;2022-09-29T14:30:46;1.83;;;1.73;;
18196;SDS011;9224;52.422;13.024;2022-09-29T14:33:20;1.67;;;1.47;;
18196;SDS011;9224;52.422;13.024;2022-09-29T14:35:59;2.23;;;2.00;;
18196;SDS011;9224;52.422;13.024;2022-09-29T14:38:32;2.80;;;1.90;;
18196;SDS011;9224;52.422;13.024;2022-09-29T14:41:03;2.10;;;2.00;;
18196;SDS011;9224;52.422;13.024;2022-09-29T14:43:50;2.60;;;2.00;;
18196;SDS011;9224;52.422;13.024;2022-09-29T14:46:32;2.07;;;1.97;;
18196;SDS011;9224;52.422;13.024;2022-09-29T14:49:44;3.20;;;2.10;;
18196;SDS011;9224;52.422;13.024;2022-09-29T14:52:37;2.10;;;1.83;;
18196;SDS011;9224;52.422;13.024;2022-09-29T14:55:11;2.40;;;2.20;;
18196;SDS011;9224;52.422;13.024;2022-09-29T14:57:49;2.00;;;1.90;;
18196;SDS011;9224;52.422;13.024;2022-09-29T15:00:27;1.93;;;1.60;;
18196;SDS011;9224;52.422;13.024;2022-09-29T15:02:58;1.87;;;1.77;;
18196;SDS011;9224;52.422;13.024;2022-09-29T15:05:28;2.20;;;1.40;;
18196;SDS011;9224;52.422;13.024;2022-09-29T15:07:56;2.13;;;1.83;;
18196;SDS011;9224;52.422;13.024;2022-09-29T15:10:24;1.50;;;1.40;;
18196;SDS011;9224;52.422;13.024;2022-09-29T15:12:52;1.70;;;1.60;;
18196;SDS011;9224;52.422;13.024;2022-09-29T15:15:30;4.40;;;4.00;;
18196;SDS011;9224;52.422;13.024;2022-09-29T15:18:00;1.67;;;1.67;;
18196;SDS011;9224;52.422;13.024;2022-09-29T15:20:33;2.10;;;2.00;;
18196;SDS011;9224;52.422;13.024;2022-09-29T15:23:21;3.17;;;2.83;;
18196;SDS011;9224;52.422;13.024;2022-09-29T15:25:57;1.60;;;1.50;;
18196;SDS011;9224;52.422;13.024;2022-09-29T15:28:26;2.03;;;1.93;;
18196;SDS011;9224;52.422;13.024;2022-09-29T15:30:55;2.60;;;2.37;;